sensor_id;sensor_type;location;lat;lon;timestamp;P1;durP1;ratioP1;P2;durP2;ratioP2
5827;SDS011;42583;50.240;8.444;2022-08-19T00:09:52;22.75;;;13.55;;
5827;SDS011;42583;50.240;8.444;2022-08-19T00:24:53;26.50;;;14.20;;
5827;SDS011;42583;50.240;8.444;2022-08-19T00:39:54;24.55;;;13.55;;
5827;SDS011;42583;50.240;8.444;2022-08-19T00:54:56;23.08;;;13.50;;
5827;SDS011;42583;50.240;8.444;2022-08-19T01:09:57;22.17;;;14.05;;
5827;SDS011;42583;50.240;8.444;2022-08-19T01:24:59;23.02;;;13.85;;
5827;SDS011;42583;50.240;8.444;2022-08-19T01:40:01;21.38;;;13.32;;
5827;SDS011;42583;50.240;8.444;2022-08-19T01:55:02;23.02;;;14.05;;
5827;SDS011;42583;50.240;8.444;2022-08-19T02:10:07;22.50;;;12.50;;
5827;SDS011;42583;50.240;8.444;2022-08-19T02:25:11;21.60;;;13.00;;
5827;SDS011;42583;50.240;8.444;2022-08-19T02:40:13;19.07;;;11.40;;
5827;SDS011;42583;50.240;8.444;2022-08-19T02:55:14;21.77;;;12.30;;
5827;SDS011;42583;50.240;8.444;2022-08-19T03:10:15;21.13;;;11.85;;
5827;SDS011;42583;50.240;8.444;2022-08-19T03:25:16;18.58;;;11.13;;
5827;SDS011;42583;50.240;8.444;2022-08-19T03:40:17;20.45;;;11.15;;
5827;SDS011;42583;50.240;8.444;2022-08-19T03:55:18;17.10;;;11.10;;
5827;SDS011;42583;50.240;8.444;2022-08-19T04:10:19;18.90;;;11.45;;
5827;SDS011;42583;50.240;8.444;2022-08-19T04:25:19;16.10;;;9.98;;
5827;SDS011;42583;50.240;8.444;2022-08-19T04:40:20;19.33;;;10.82;;
5827;SDS011;42583;50.240;8.444;2022-08-19T04:55:53;20.95;;;10.63;;
5827;SDS011;42583;50.240;8.444;2022-08-19T05:10:54;15.40;;;9.15;;
5827;SDS011;42583;50.240;8.444;2022-08-19T05:25:57;15.50;;;9.52;;
5827;SDS011;42583;50.240;8.444;2022-08-19T05:40:57;13.43;;;7.90;;
5827;SDS011;42583;50.240;8.444;2022-08-19T05:55:58;9.80;;;6.03;;
5827;SDS011;42583;50.240;8.444;2022-08-19T06:26:24;11.52;;;5.78;;
5827;SDS011;42583;50.240;8.444;2022-08-19T06:41:26;10.00;;;5.80;;
5827;SDS011;42583;50.240;8.444;2022-08-19T06:56:28;8.95;;;5.30;;
5827;SDS011;42583;50.240;8.444;2022-08-19T07:11:31;9.70;;;5.78;;
5827;SDS011;42583;50.240;8.444;2022-08-19T07:26:33;11.43;;;6.43;;
5827;SDS011;42583;50.240;8.444;2022-08-19T07:41:39;11.05;;;7.57;;
5827;SDS011;42583;50.240;8.444;2022-08-19T07:56:39;14.52;;;9.10;;
5827;SDS011;42583;50.240;8.444;2022-08-19T08:11:44;17.00;;;10.70;;
5827;SDS011;42583;50.240;8.444;2022-08-19T08:26:51;14.70;;;9.38;;
5827;SDS011;42583;50.240;8.444;2022-08-19T08:42:17;18.67;;;12.70;;
5827;SDS011;42583;50.240;8.444;2022-08-19T08:57:30;17.95;;;12.90;;
5827;SDS011;42583;50.240;8.444;2022-08-19T09:12:41;21.25;;;13.80;;
5827;SDS011;42583;50.240;8.444;2022-08-19T09:27:54;19.35;;;12.45;;
5827;SDS011;42583;50.240;8.444;2022-08-19T09:42:56;19.98;;;12.50;;
5827;SDS011;42583;50.240;8.444;2022-08-19T09:58:02;18.88;;;11.93;;
5827;SDS011;42583;50.240;8.444;2022-08-19T10:13:03;15.27;;;10.85;;
5827;SDS011;42583;50.240;8.444;2022-08-19T10:28:04;14.70;;;11.13;;
5827;SDS011;42583;50.240;8.444;2022-08-19T10:43:06;18.08;;;10.65;;
5827;SDS011;42583;50.240;8.444;2022-08-19T10:58:12;14.33;;;10.07;;
5827;SDS011;42583;50.240;8.444;2022-08-19T11:13:15;10.35;;;7.75;;
5827;SDS011;42583;50.240;8.444;2022-08-19T11:28:16;9.63;;;7.55;;
5827;SDS011;42583;50.240;8.444;2022-08-19T11:43:16;11.00;;;8.30;;
5827;SDS011;42583;50.240;8.444;2022-08-19T11:58:18;9.23;;;6.60;;
5827;SDS011;42583;50.240;8.444;2022-08-19T12:13:18;7.45;;;5.47;;
5827;SDS011;42583;50.240;8.444;2022-08-19T12:28:25;6.60;;;4.75;;
5827;SDS011;42583;50.240;8.444;2022-08-19T12:43:26;6.68;;;3.63;;
5827;SDS011;42583;50.240;8.444;2022-08-19T12:58:27;4.93;;;3.40;;
5827;SDS011;42583;50.240;8.444;2022-08-19T13:13:29;5.05;;;2.97;;
5827;SDS011;42583;50.240;8.444;2022-08-19T13:28:30;6.13;;;3.30;;
5827;SDS011;42583;50.240;8.444;2022-08-19T13:43:51;4.00;;;3.22;;
5827;SDS011;42583;50.240;8.444;2022-08-19T13:58:51;3.60;;;2.45;;
5827;SDS011;42583;50.240;8.444;2022-08-19T14:13:53;4.78;;;2.67;;
5827;SDS011;42583;50.240;8.444;2022-08-19T14:28:53;3.63;;;2.10;;
5827;SDS011;42583;50.240;8.444;2022-08-19T14:43:57;4.22;;;1.98;;
5827;SDS011;42583;50.240;8.444;2022-08-19T14:58:58;4.60;;;2.40;;
5827;SDS011;42583;50.240;8.444;2022-08-19T15:14:00;3.35;;;2.35;;
5827;SDS011;42583;50.240;8.444;2022-08-19T15:29:02;3.47;;;2.60;;
5827;SDS011;42583;50.240;8.444;2022-08-19T15:44:05;5.38;;;3.67;;
5827;SDS011;42583;50.240;8.444;2022-08-19T15:59:12;7.55;;;4.38;;
5827;SDS011;42583;50.240;8.444;2022-08-19T16:14:31;6.45;;;4.53;;
5827;SDS011;42583;50.240;8.444;2022-08-19T16:29:34;5.40;;;3.53;;
5827;SDS011;42583;50.240;8.444;2022-08-19T16:44:35;5.47;;;3.45;;
5827;SDS011;42583;50.240;8.444;2022-08-19T16:59:39;6.18;;;4.68;;
5827;SDS011;42583;50.240;8.444;2022-08-19T17:14:40;6.05;;;4.78;;
5827;SDS011;42583;50.240;8.444;2022-08-19T17:29:40;6.55;;;4.78;;
5827;SDS011;42583;50.240;8.444;2022-08-19T17:44:41;9.00;;;5.70;;
5827;SDS011;42583;50.240;8.444;2022-08-19T17:59:41;7.28;;;5.00;;
5827;SDS011;42583;50.240;8.444;2022-08-19T18:14:42;7.65;;;5.00;;
5827;SDS011;42583;50.240;8.444;2022-08-19T18:29:43;11.07;;;5.00;;
5827;SDS011;42583;50.240;8.444;2022-08-19T18:44:44;6.43;;;4.57;;
5827;SDS011;42583;50.240;8.444;2022-08-19T19:00:04;7.38;;;4.88;;
5827;SDS011;42583;50.240;8.444;2022-08-19T19:15:05;7.23;;;5.40;;
5827;SDS011;42583;50.240;8.444;2022-08-19T19:30:07;8.95;;;5.68;;
5827;SDS011;42583;50.240;8.444;2022-08-19T19:45:07;10.80;;;6.10;;
5827;SDS011;42583;50.240;8.444;2022-08-19T20:00:08;11.15;;;6.40;;
5827;SDS011;42583;50.240;8.444;2022-08-19T20:15:12;9.45;;;5.80;;
5827;SDS011;42583;50.240;8.444;2022-08-19T20:30:14;9.47;;;5.37;;
5827;SDS011;42583;50.240;8.444;2022-08-19T20:45:18;8.70;;;4.82;;
5827;SDS011;42583;50.240;8.444;2022-08-19T21:00:20;9.90;;;4.55;;
5827;SDS011;42583;50.240;8.444;2022-08-19T21:15:21;11.85;;;4.00;;
5827;SDS011;42583;50.240;8.444;2022-08-19T21:30:23;13.57;;;3.60;;
5827;SDS011;42583;50.240;8.444;2022-08-19T21:45:24;7.22;;;3.53;;
5827;SDS011;42583;50.240;8.444;2022-08-19T22:00:25;7.57;;;3.28;;
5827;SDS011;42583;50.240;8.444;2022-08-19T22:30:29;7.10;;;3.20;;
5827;SDS011;42583;50.240;8.444;2022-08-19T22:45:30;6.97;;;3.47;;
5827;SDS011;42583;50.240;8.444;2022-08-19T23:00:32;6.07;;;3.35;;
5827;SDS011;42583;50.240;8.444;2022-08-19T23:15:33;7.50;;;3.38;;
5827;SDS011;42583;50.240;8.444;2022-08-19T23:30:35;9.35;;;4.25;;
5827;SDS011;42583;50.240;8.444;2022-08-19T23:45:39;6.28;;;3.92;;
